createdAt,value
2022-11-23T00:02:47.220Z,3.06
2022-11-23T00:07:49.296Z,3.02
2022-11-23T00:12:51.281Z,2.99
2022-11-23T00:17:53.100Z,2.96
2022-11-23T00:22:54.991Z,2.95
2022-11-23T00:27:57.033Z,2.93
2022-11-23T00:32:59.057Z,2.90
2022-11-23T00:38:01.004Z,2.89
2022-11-23T00:43:02.865Z,2.89
2022-11-23T00:48:04.957Z,2.88
2022-11-23T00:53:06.780Z,2.87
2022-11-23T00:58:08.844Z,2.87
2022-11-23T01:03:10.716Z,2.85
2022-11-23T01:08:12.656Z,2.84
2022-11-23T01:13:14.351Z,2.79
2022-11-23T01:18:16.192Z,2.77
2022-11-23T01:23:18.221Z,2.76
2022-11-23T01:28:20.006Z,2.74
2022-11-23T01:33:24.956Z,2.71
2022-11-23T01:38:26.768Z,2.73
2022-11-23T01:43:28.565Z,2.73
2022-11-23T01:48:40.911Z,2.74
2022-11-23T01:53:43.628Z,2.73
2022-11-23T01:58:49.930Z,2.69
2022-11-23T02:03:55.169Z,2.66
2022-11-23T02:08:57.814Z,2.62
2022-11-23T02:14:00.632Z,2.58
2022-11-23T02:19:12.930Z,2.56
2022-11-23T02:24:25.554Z,2.55
2022-11-23T02:29:29.640Z,2.57
2022-11-23T02:34:35.764Z,2.62
2022-11-23T02:39:52.319Z,2.63
2022-11-23T02:45:04.469Z,2.65
2022-11-23T02:50:06.659Z,2.67
2022-11-23T02:55:09.471Z,2.69
2022-11-23T03:00:12.219Z,2.72
2022-11-23T03:05:14.209Z,2.73
2022-11-23T03:10:16.232Z,2.75
2022-11-23T03:15:19.803Z,2.77
2022-11-23T03:20:22.685Z,2.81
2022-11-23T03:25:26.249Z,2.84
2022-11-23T03:30:31.836Z,2.83
2022-11-23T03:35:34.412Z,2.87
2022-11-23T03:41:05.437Z,2.98
2022-11-23T03:46:20.657Z,3.04
2022-11-23T03:51:23.352Z,3.08
2022-11-23T03:56:25.431Z,3.12
2022-11-23T04:01:27.377Z,3.13
2022-11-23T04:06:35.381Z,3.14
2022-11-23T04:11:49.216Z,3.15
2022-11-23T04:16:50.989Z,3.16
2022-11-23T04:21:52.882Z,3.16
2022-11-23T04:26:56.077Z,3.16
2022-11-23T04:31:59.209Z,3.15
2022-11-23T04:37:01.166Z,3.15
2022-11-23T04:42:12.212Z,3.14
2022-11-23T04:47:14.446Z,3.13
2022-11-23T04:52:16.739Z,3.11
2022-11-23T04:57:23.094Z,3.09
2022-11-23T05:02:27.064Z,3.07
2022-11-23T05:07:38.944Z,2.99
2022-11-23T05:12:41.015Z,2.94
2022-11-23T05:17:44.208Z,2.93
2022-11-23T05:22:54.396Z,2.90
2022-11-23T05:28:03.718Z,2.88
2022-11-23T05:33:14.355Z,2.85
2022-11-23T05:38:17.883Z,2.82
2022-11-23T05:43:19.804Z,2.78
2022-11-23T05:48:23.037Z,2.75
2022-11-23T05:53:32.084Z,2.71
2022-11-23T05:59:00.278Z,2.69
2022-11-23T06:04:02.493Z,2.68
2022-11-23T06:09:11.202Z,2.67
2022-11-23T06:14:15.493Z,2.63
2022-11-23T06:19:20.800Z,2.61
2022-11-23T06:24:24.622Z,2.63
2022-11-23T06:29:47.392Z,2.64
2022-11-23T06:34:49.408Z,2.64
2022-11-23T06:39:51.316Z,2.65
2022-11-23T06:44:53.559Z,2.66
2022-11-23T06:49:57.621Z,2.65
2022-11-23T06:55:03.449Z,2.66
2022-11-23T07:00:06.397Z,2.66
2022-11-23T07:05:12.454Z,2.67
2022-11-23T07:10:15.231Z,2.67
2022-11-23T07:15:23.341Z,2.67
2022-11-23T07:20:27.185Z,2.67
2022-11-23T07:25:31.867Z,2.67
2022-11-23T07:30:36.564Z,2.67
2022-11-23T07:35:41.112Z,2.68
2022-11-23T07:40:44.360Z,2.68
2022-11-23T07:46:00.349Z,2.66
2022-11-23T07:51:02.231Z,2.64
2022-11-23T07:56:04.259Z,2.63
2022-11-23T08:01:09.122Z,2.62
2022-11-23T08:06:12.147Z,2.64
2022-11-23T08:11:18.825Z,2.68
2022-11-23T08:16:20.655Z,2.77
2022-11-23T08:21:22.488Z,2.85
2022-11-23T08:26:24.343Z,2.90
2022-11-23T08:31:26.380Z,2.95
2022-11-23T08:36:28.177Z,2.99
2022-11-23T08:41:29.942Z,3.01
2022-11-23T08:46:31.831Z,3.07
2022-11-23T08:51:34.304Z,3.18
2022-11-23T08:56:36.175Z,3.28
2022-11-23T09:01:38.161Z,3.37
2022-11-23T09:06:40.140Z,3.44
2022-11-23T09:11:41.987Z,3.55
2022-11-23T09:16:43.734Z,3.65
2022-11-23T09:21:45.858Z,3.73
2022-11-23T09:26:47.683Z,3.77
2022-11-23T09:31:49.434Z,3.86
2022-11-23T09:36:51.243Z,3.95
2022-11-23T09:42:40.826Z,4.07
2022-11-23T09:48:20.209Z,4.17
2022-11-23T09:53:44.883Z,4.25
2022-11-23T09:58:47.287Z,4.37
2022-11-23T10:03:49.727Z,4.52
2022-11-23T10:09:10.709Z,4.67
2022-11-23T10:14:37.265Z,4.84
2022-11-23T10:20:25.772Z,5.03
2022-11-23T10:25:39.233Z,5.19
2022-11-23T10:30:42.818Z,5.28
2022-11-23T10:35:44.705Z,5.37
2022-11-23T10:41:10.974Z,5.50
2022-11-23T10:46:33.873Z,5.59
2022-11-23T10:51:36.469Z,5.63
2022-11-23T10:56:50.058Z,5.70
2022-11-23T11:02:10.633Z,5.72
2022-11-23T11:07:29.444Z,5.70
2022-11-23T11:12:35.031Z,5.75
2022-11-23T11:17:38.122Z,5.82
2022-11-23T11:22:46.218Z,5.94
2022-11-23T11:27:53.910Z,5.98
2022-11-23T11:33:18.903Z,6.00
2022-11-23T11:38:31.645Z,6.02
2022-11-23T11:43:41.519Z,6.00
2022-11-23T11:48:59.894Z,6.02
2022-11-23T11:54:34.543Z,6.10
2022-11-23T11:59:45.737Z,6.13
2022-11-23T12:05:02.791Z,6.17
2022-11-23T12:10:28.121Z,6.20
2022-11-23T12:15:53.379Z,6.22
2022-11-23T12:21:26.502Z,6.26
2022-11-23T12:26:58.954Z,6.27
2022-11-23T12:32:45.374Z,6.27
2022-11-23T12:38:26.183Z,6.24
2022-11-23T12:43:37.142Z,6.22
2022-11-23T12:49:12.082Z,6.18
2022-11-23T12:54:34.861Z,6.13
2022-11-23T13:00:01.024Z,6.07
2022-11-23T13:05:28.126Z,6.01
2022-11-23T13:10:38.643Z,5.97
2022-11-23T13:16:08.942Z,5.95
2022-11-23T13:21:25.696Z,5.92
2022-11-23T13:26:31.585Z,5.88
2022-11-23T13:31:36.104Z,5.88
2022-11-23T13:37:11.108Z,5.84
2022-11-23T13:42:06.068Z,5.80
2022-11-23T13:47:20.300Z,5.76
2022-11-23T13:52:25.193Z,5.73
2022-11-23T13:57:27.286Z,5.70
2022-11-23T14:02:31.289Z,5.68
2022-11-23T14:07:47.181Z,5.66
2022-11-23T14:12:56.962Z,5.63
2022-11-23T14:18:30.287Z,5.61
2022-11-23T14:23:53.359Z,5.58
2022-11-23T14:29:13.186Z,5.56
2022-11-23T14:34:35.397Z,5.51
2022-11-23T14:39:59.834Z,5.45
2022-11-23T14:45:05.101Z,5.39
2022-11-23T14:50:29.920Z,5.32
2022-11-23T14:55:33.040Z,5.25
2022-11-23T15:00:41.656Z,5.19
2022-11-23T15:05:52.777Z,5.11
2022-11-23T15:11:13.193Z,5.02
2022-11-23T15:16:17.798Z,4.94
2022-11-23T15:21:27.795Z,4.87
2022-11-23T15:26:49.094Z,4.80
2022-11-23T15:32:14.227Z,4.74
2022-11-23T15:37:14.920Z,4.68
2022-11-23T15:42:22.789Z,4.63
2022-11-23T15:47:31.138Z,4.58
2022-11-23T15:52:37.845Z,4.54
2022-11-23T15:57:40.838Z,4.52
2022-11-23T16:02:43.405Z,4.50
2022-11-23T16:08:02.658Z,4.48
2022-11-23T16:13:06.358Z,4.45
2022-11-23T16:18:17.474Z,4.39
2022-11-23T16:23:26.034Z,4.35
2022-11-23T16:28:36.705Z,4.33
2022-11-23T16:33:38.825Z,4.31
2022-11-23T16:38:40.618Z,4.29
2022-11-23T16:43:42.469Z,4.28
2022-11-23T16:48:44.419Z,4.28
2022-11-23T16:54:12.580Z,4.27
2022-11-23T16:59:20.483Z,4.26
2022-11-23T17:04:22.397Z,4.23
2022-11-23T17:09:24.224Z,4.22
2022-11-23T17:14:29.592Z,4.23
2022-11-23T17:19:32.423Z,4.22
2022-11-23T17:24:34.900Z,4.24
2022-11-23T17:29:41.642Z,4.23
2022-11-23T17:34:44.278Z,4.21
2022-11-23T17:39:47.615Z,4.20
2022-11-23T17:44:49.609Z,4.20
2022-11-23T17:49:52.346Z,4.18
2022-11-23T17:54:54.498Z,4.18
2022-11-23T18:00:00.488Z,4.16
2022-11-23T18:05:24.079Z,4.15
2022-11-23T18:10:25.964Z,4.13
2022-11-23T18:15:28.318Z,4.10
2022-11-23T18:20:30.003Z,4.07
2022-11-23T18:25:32.275Z,4.04
2022-11-23T18:30:34.043Z,4.01
2022-11-23T18:35:35.797Z,4.00
2022-11-23T18:40:37.611Z,4.00
2022-11-23T18:45:39.523Z,3.98
2022-11-23T18:50:41.567Z,3.97
2022-11-23T18:55:43.365Z,3.95
2022-11-23T19:00:45.431Z,3.93
2022-11-23T19:05:47.245Z,3.88
2022-11-23T19:10:50.054Z,3.83
2022-11-23T19:15:51.828Z,3.77
2022-11-23T19:20:54.029Z,3.71
2022-11-23T19:26:01.468Z,3.69
2022-11-23T19:31:21.110Z,3.67
2022-11-23T19:36:25.323Z,3.65
2022-11-23T19:41:30.462Z,3.64
2022-11-23T19:46:33.127Z,3.63
2022-11-23T19:51:35.150Z,3.64
2022-11-23T19:56:40.053Z,3.64
2022-11-23T20:01:41.899Z,3.65
2022-11-23T20:06:43.963Z,3.65
2022-11-23T20:11:50.342Z,3.65
2022-11-23T20:16:53.320Z,3.64
2022-11-23T20:21:55.534Z,3.64
2022-11-23T20:26:57.402Z,3.62
2022-11-23T20:31:59.329Z,3.60
2022-11-23T20:37:01.486Z,3.56
2022-11-23T20:42:03.483Z,3.54
2022-11-23T20:47:05.430Z,3.50
2022-11-23T20:52:07.231Z,3.45
2022-11-23T20:57:09.290Z,3.41
2022-11-23T21:02:11.187Z,3.40
2022-11-23T21:07:13.072Z,3.37
2022-11-23T21:12:50.246Z,3.35
2022-11-23T21:17:52.373Z,3.31
2022-11-23T21:22:54.126Z,3.28
2022-11-23T21:27:55.993Z,3.23
2022-11-23T21:32:57.778Z,3.20
2022-11-23T21:38:00.570Z,3.18
2022-11-23T21:43:02.445Z,3.18
2022-11-23T21:48:04.622Z,3.19
2022-11-23T21:53:06.369Z,3.19
2022-11-23T21:58:08.130Z,3.20
2022-11-23T22:03:11.537Z,3.22
2022-11-23T22:08:28.915Z,3.21
2022-11-23T22:13:36.622Z,3.20
2022-11-23T22:18:39.404Z,3.18
2022-11-23T22:23:41.383Z,3.15
2022-11-23T22:28:47.225Z,3.14
2022-11-23T22:33:49.797Z,3.12
2022-11-23T22:39:01.032Z,3.10
2022-11-23T22:44:06.081Z,3.07
2022-11-23T22:49:08.043Z,3.06
2022-11-23T22:54:10.153Z,3.04
2022-11-23T22:59:12.306Z,3.05
2022-11-23T23:04:14.132Z,3.05
2022-11-23T23:09:16.079Z,3.00
2022-11-23T23:14:18.356Z,2.96
2022-11-23T23:19:20.569Z,2.90
2022-11-23T23:24:22.259Z,2.85
2022-11-23T23:29:24.499Z,2.82
2022-11-23T23:34:26.281Z,2.78
2022-11-23T23:39:28.045Z,2.75
2022-11-23T23:44:29.848Z,2.71
2022-11-23T23:49:31.768Z,2.67
2022-11-23T23:54:34.070Z,2.65
2022-11-23T23:59:36.340Z,2.63
